Time;durP1;ratioP1;P1;durP2;ratioP2;P2;SDS_P1;SDS_P2;PMS_P1;PMS_P2;Temp;Humidity;BMP_temperature;BMP_pressure;BME280_temperature;BME280_humidity;BME280_pressure;Samples;Min_cycle;Max_cycle;Signal;HPM_P1;HPM_P2
2020/12/28 00:02:04;;;;;;;30.20;14.10;;;-0.20;84.00;;;;;;5052350;28;20040;-68
2020/12/28 00:04:30;;;;;;;29.38;14.20;;;-0.20;84.00;;;;;;5052413;28;20028;-67
2020/12/28 00:06:56;;;;;;;26.58;13.20;;;-0.20;84.00;;;;;;5051394;28;20025;-68
2020/12/28 00:09:22;;;;;;;28.38;12.98;;;-0.20;83.90;;;;;;5056632;28;20036;-68
2020/12/28 00:11:56;;;;;;;28.60;14.00;;;-0.30;84.00;;;;;;5056191;28;20486;-68
2020/12/28 00:14:22;;;;;;;30.35;14.30;;;-0.20;84.10;;;;;;5055236;28;20025;-68
2020/12/28 00:16:48;;;;;;;31.17;15.73;;;-0.30;84.00;;;;;;5055684;28;20025;-68
2020/12/28 00:19:16;;;;;;;29.52;14.73;;;-0.30;83.90;;;;;;5056176;28;20025;-68
2020/12/28 00:21:42;;;;;;;26.38;14.30;;;-0.30;83.90;;;;;;5054960;28;20036;-68
2020/12/28 00:24:08;;;;;;;28.48;14.32;;;-0.30;83.90;;;;;;5055819;28;20467;-68
2020/12/28 00:26:41;;;;;;;30.08;15.05;;;-0.30;83.90;;;;;;5055933;28;20037;-67
2020/12/28 00:29:07;;;;;;;32.05;15.30;;;-0.30;84.00;;;;;;5040920;28;20037;-67
2020/12/28 00:31:34;;;;;;;31.40;13.60;;;-0.20;84.10;;;;;;5047285;28;20025;-68
2020/12/28 00:34:03;;;;;;;30.55;15.25;;;-0.20;84.10;;;;;;5049045;28;20047;-68
2020/12/28 00:36:29;;;;;;;27.70;13.65;;;-0.20;84.10;;;;;;5056817;28;20017;-68
2020/12/28 00:38:54;;;;;;;29.48;14.85;;;-0.20;84.10;;;;;;5055801;28;20356;-67
2020/12/28 00:41:20;;;;;;;33.63;13.70;;;-0.20;84.10;;;;;;5055443;28;20021;-68
2020/12/28 00:43:46;;;;;;;29.95;13.27;;;-0.20;84.10;;;;;;5055563;28;20406;-68
2020/12/28 00:46:13;;;;;;;30.80;13.32;;;-0.10;84.20;;;;;;5054982;28;20064;-68
2020/12/28 00:48:40;;;;;;;33.13;14.60;;;-0.10;84.20;;;;;;5055511;28;20021;-67
2020/12/28 00:51:06;;;;;;;32.42;14.63;;;-0.10;84.10;;;;;;5047195;28;20098;-68
2020/12/28 00:53:32;;;;;;;36.90;14.50;;;-0.10;84.10;;;;;;5055254;28;20064;-67
2020/12/28 00:55:58;;;;;;;34.50;13.93;;;-0.10;84.10;;;;;;5054932;28;20494;-68
2020/12/28 00:58:24;;;;;;;42.80;15.57;;;0.00;84.00;;;;;;5053789;28;20387;-68
2020/12/28 01:00:50;;;;;;;41.80;16.15;;;0.00;83.80;;;;;;5055133;28;20036;-69
2020/12/28 01:03:16;;;;;;;41.50;15.60;;;-0.10;83.60;;;;;;5054014;28;20029;-68
2020/12/28 01:05:42;;;;;;;38.90;15.55;;;-0.10;83.60;;;;;;5055304;28;20079;-67
2020/12/28 01:08:09;;;;;;;43.58;16.88;;;-0.10;83.60;;;;;;5050607;28;20080;-67
2020/12/28 01:10:35;;;;;;;28.67;13.65;;;-0.10;83.70;;;;;;5045321;28;20056;-68
2020/12/28 01:13:02;;;;;;;31.42;13.63;;;-0.10;83.70;;;;;;5054788;28;20029;-67
2020/12/28 01:15:28;;;;;;;27.35;13.88;;;-0.10;83.50;;;;;;5054807;28;20047;-67
2020/12/28 01:17:56;;;;;;;31.00;14.35;;;-0.20;83.60;;;;;;5053315;28;20493;-67
2020/12/28 01:20:22;;;;;;;28.55;13.05;;;-0.20;83.60;;;;;;5053687;28;20056;-67
2020/12/28 01:22:48;;;;;;;28.02;13.80;;;-0.20;83.60;;;;;;5054860;28;20072;-67
2020/12/28 01:25:15;;;;;;;30.10;13.43;;;-0.20;83.60;;;;;;5054447;28;20017;-67
2020/12/28 01:27:40;;;;;;;30.50;15.07;;;-0.20;83.70;;;;;;5054851;28;20032;-67
2020/12/28 01:30:07;;;;;;;24.45;13.80;;;-0.20;83.70;;;;;;5054586;28;20120;-67
2020/12/28 01:32:33;;;;;;;27.58;13.65;;;-0.20;83.70;;;;;;5055284;28;20067;-68
2020/12/28 01:34:58;;;;;;;27.05;13.30;;;-0.20;83.80;;;;;;5040643;28;20056;-67
2020/12/28 01:37:25;;;;;;;30.05;14.05;;;-0.20;83.80;;;;;;5054863;28;20048;-67
2020/12/28 01:39:50;;;;;;;33.78;15.85;;;-0.20;83.90;;;;;;5053152;28;20021;-68
2020/12/28 01:42:16;;;;;;;28.40;13.93;;;-0.20;83.90;;;;;;5038844;28;20040;-67
2020/12/28 01:44:42;;;;;;;30.70;14.10;;;-0.20;83.90;;;;;;5054667;28;20064;-67
2020/12/28 01:47:08;;;;;;;32.08;16.30;;;-0.20;83.90;;;;;;5053056;28;20482;-67
2020/12/28 01:49:34;;;;;;;30.70;14.85;;;-0.10;83.90;;;;;;5054300;28;20029;-67
2020/12/28 01:52:01;;;;;;;32.45;15.23;;;-0.10;84.00;;;;;;5052868;28;20490;-67
2020/12/28 01:54:28;;;;;;;33.30;14.60;;;-0.10;84.10;;;;;;5054454;28;20356;-67
2020/12/28 01:56:56;;;;;;;28.55;13.88;;;-0.10;84.10;;;;;;5052816;28;20021;-67
2020/12/28 01:59:23;;;;;;;29.58;14.70;;;-0.10;83.90;;;;;;5054111;28;20099;-67
2020/12/28 02:01:51;;;;;;;29.92;15.38;;;-0.10;83.90;;;;;;5054169;28;20033;-66
2020/12/28 02:04:17;;;;;;;36.13;15.75;;;-0.10;83.90;;;;;;5051359;28;20039;-67
2020/12/28 02:06:43;;;;;;;30.13;12.65;;;-0.10;83.80;;;;;;5043183;28;20025;-67
2020/12/28 02:09:09;;;;;;;39.20;14.00;;;0.00;83.80;;;;;;5053873;28;20040;-68
2020/12/28 02:11:35;;;;;;;40.92;16.17;;;0.00;83.80;;;;;;5052915;28;20029;-67
2020/12/28 02:14:00;;;;;;;32.08;13.45;;;0.00;83.80;;;;;;5052597;28;20025;-67
2020/12/28 02:16:26;;;;;;;45.33;15.60;;;0.00;83.70;;;;;;5047705;28;20059;-67
2020/12/28 02:18:52;;;;;;;30.60;13.25;;;0.00;84.30;;;;;;5040218;28;20053;-68
2020/12/28 02:21:18;;;;;;;26.95;11.70;;;0.00;83.80;;;;;;5051063;28;20021;-69
2020/12/28 02:23:45;;;;;;;31.60;13.63;;;0.00;83.70;;;;;;5054376;28;20390;-67
2020/12/28 02:26:11;;;;;;;29.33;12.60;;;0.00;83.70;;;;;;5053251;28;20041;-67
2020/12/28 02:28:37;;;;;;;32.33;11.95;;;0.00;83.70;;;;;;5052932;28;20486;-66
2020/12/28 02:31:03;;;;;;;39.60;12.63;;;0.00;83.70;;;;;;5053260;28;20074;-67
2020/12/28 02:33:29;;;;;;;23.05;10.88;;;0.00;83.60;;;;;;5052264;28;20025;-66
2020/12/28 02:35:55;;;;;;;21.02;9.48;;;0.10;83.50;;;;;;5053496;28;20146;-67
2020/12/28 02:38:20;;;;;;;24.20;11.52;;;0.10;83.50;;;;;;5053378;28;20561;-66
2020/12/28 02:40:46;;;;;;;21.83;10.35;;;0.10;83.50;;;;;;5053278;28;20414;-67
2020/12/28 02:43:12;;;;;;;27.10;12.30;;;0.10;83.40;;;;;;5053445;28;20036;-67
2020/12/28 02:45:38;;;;;;;24.90;12.98;;;0.10;83.40;;;;;;5052051;28;20033;-67
2020/12/28 02:48:04;;;;;;;26.63;12.02;;;0.10;83.40;;;;;;5053633;28;20102;-67
2020/12/28 02:50:30;;;;;;;21.30;11.57;;;0.10;83.40;;;;;;5039171;28;20017;-67
2020/12/28 02:52:55;;;;;;;21.98;11.52;;;0.10;83.50;;;;;;5053267;28;20115;-67
2020/12/28 02:55:21;;;;;;;24.50;11.27;;;0.20;83.50;;;;;;5053255;28;20061;-67
2020/12/28 02:57:47;;;;;;;25.15;12.43;;;0.20;83.50;;;;;;5053135;28;20100;-67
2020/12/28 03:00:14;;;;;;;23.48;11.20;;;0.20;83.40;;;;;;5051704;28;20036;-66
2020/12/28 03:02:41;;;;;;;24.60;12.15;;;0.20;83.30;;;;;;5051809;28;20083;-67
2020/12/28 03:05:06;;;;;;;27.98;13.45;;;0.30;83.40;;;;;;5051853;28;20029;-67
2020/12/28 03:07:32;;;;;;;26.75;12.45;;;0.30;83.40;;;;;;5051750;28;20036;-67
2020/12/28 03:09:58;;;;;;;21.52;11.82;;;0.40;83.20;;;;;;5053238;28;20412;-68
2020/12/28 03:12:24;;;;;;;36.78;13.70;;;0.40;83.20;;;;;;5053093;28;20391;-67
2020/12/28 03:14:49;;;;;;;25.23;12.85;;;0.40;83.10;;;;;;5051634;28;20052;-68
2020/12/28 03:17:15;;;;;;;24.25;11.60;;;0.40;83.10;;;;;;5052832;28;20025;-68
2020/12/28 03:19:41;;;;;;;34.47;16.00;;;0.40;83.00;;;;;;5053193;28;20078;-67
2020/12/28 03:22:07;;;;;;;27.45;12.98;;;0.50;83.10;;;;;;5052767;28;20037;-67
2020/12/28 03:24:32;;;;;;;28.05;13.65;;;0.50;83.10;;;;;;5051682;28;20029;-67
2020/12/28 03:27:02;;;;;;;22.05;10.85;;;0.50;82.90;;;;;;5053189;28;20040;-67
2020/12/28 03:29:28;;;;;;;27.90;13.27;;;0.50;82.70;;;;;;5051721;28;20052;-78
2020/12/28 03:31:54;;;;;;;30.00;15.15;;;0.50;82.70;;;;;;5052751;28;20021;-68
2020/12/28 03:34:20;;;;;;;25.67;13.63;;;0.50;82.80;;;;;;5051582;28;20025;-67
2020/12/28 03:36:45;;;;;;;35.10;16.10;;;0.50;82.70;;;;;;5052509;28;20025;-67
2020/12/28 03:39:11;;;;;;;23.20;11.75;;;0.60;82.80;;;;;;5052788;28;20060;-68
2020/12/28 03:41:37;;;;;;;27.63;13.77;;;0.60;82.60;;;;;;5052881;28;20035;-67
2020/12/28 03:44:02;;;;;;;25.27;13.57;;;0.60;82.60;;;;;;5056833;28;20448;-67
2020/12/28 03:46:28;;;;;;;31.13;15.65;;;0.60;82.50;;;;;;5055335;28;20025;-74
2020/12/28 03:48:54;;;;;;;25.92;13.13;;;0.60;82.60;;;;;;5056874;28;20456;-67
2020/12/28 03:51:19;;;;;;;33.17;15.60;;;0.60;82.70;;;;;;5055296;28;20116;-66
2020/12/28 03:53:45;;;;;;;27.60;13.45;;;0.60;82.70;;;;;;5055232;28;20031;-65
2020/12/28 03:56:11;;;;;;;25.27;12.60;;;0.60;82.50;;;;;;5055187;28;20060;-67
2020/12/28 03:58:37;;;;;;;27.23;12.80;;;0.60;82.50;;;;;;5056597;28;20035;-65
2020/12/28 04:01:04;;;;;;;22.17;11.95;;;0.70;82.50;;;;;;5056299;28;20025;-66
2020/12/28 04:03:30;;;;;;;26.17;13.93;;;0.60;82.20;;;;;;5056299;28;20040;-66
2020/12/28 04:05:56;;;;;;;24.60;11.98;;;0.70;82.30;;;;;;5054559;28;20024;-67
2020/12/28 04:08:22;;;;;;;23.77;12.23;;;0.70;82.30;;;;;;5054911;28;20033;-66
2020/12/28 04:10:47;;;;;;;25.10;12.55;;;0.70;82.30;;;;;;5055205;28;20072;-68
2020/12/28 04:13:13;;;;;;;27.17;12.95;;;0.70;82.40;;;;;;5056434;28;20028;-68
2020/12/28 04:15:39;;;;;;;23.67;12.60;;;0.70;82.40;;;;;;5056266;28;20395;-68
2020/12/28 04:18:04;;;;;;;27.45;12.23;;;0.70;82.40;;;;;;5055149;28;20478;-68
2020/12/28 04:20:30;;;;;;;27.77;12.65;;;0.80;82.50;;;;;;5054941;28;20021;-67
2020/12/28 04:22:56;;;;;;;48.53;20.88;;;0.80;82.30;;;;;;5055983;28;20033;-68
2020/12/28 04:25:21;;;;;;;35.55;15.70;;;0.80;82.30;;;;;;5055582;28;20056;-68
2020/12/28 04:27:47;;;;;;;48.33;21.23;;;0.80;82.00;;;;;;5055862;28;20033;-69
2020/12/28 04:30:13;;;;;;;30.27;15.13;;;0.80;82.10;;;;;;5055833;28;20056;-68
2020/12/28 04:32:38;;;;;;;26.17;14.00;;;0.80;82.00;;;;;;5056201;28;20029;-68
2020/12/28 04:35:05;;;;;;;25.35;11.98;;;0.80;81.90;;;;;;5055685;28;20104;-68
2020/12/28 04:37:33;;;;;;;23.70;11.38;;;0.80;81.80;;;;;;5056056;28;20029;-68
2020/12/28 04:39:58;;;;;;;26.15;12.20;;;0.90;81.80;;;;;;5055371;28;20100;-68
2020/12/28 04:42:25;;;;;;;30.10;13.75;;;0.90;81.80;;;;;;5055719;28;20121;-67
2020/12/28 04:44:51;;;;;;;39.30;12.95;;;0.90;81.80;;;;;;5055655;28;20082;-68
2020/12/28 04:47:17;;;;;;;42.85;18.23;;;0.90;81.40;;;;;;5054324;28;20036;-68
2020/12/28 04:49:46;;;;;;;65.90;27.80;;;0.90;81.60;;;;;;5054225;28;20029;-68
2020/12/28 04:52:13;;;;;;;32.28;13.75;;;0.90;81.70;;;;;;5055257;28;20107;-68
2020/12/28 04:54:40;;;;;;;58.22;20.63;;;1.00;81.40;;;;;;5054933;28;20075;-68
2020/12/28 04:57:07;;;;;;;60.80;22.38;;;0.90;81.30;;;;;;5054141;28;20027;-68
2020/12/28 04:59:33;;;;;;;56.55;22.13;;;1.00;81.50;;;;;;5055238;28;20032;-67
2020/12/28 05:01:59;;;;;;;46.95;19.90;;;1.00;81.50;;;;;;5054991;28;20047;-68
2020/12/28 05:04:25;;;;;;;33.92;16.25;;;1.00;81.30;;;;;;5054838;28;20104;-67
2020/12/28 05:06:58;;;;;;;29.95;14.18;;;1.10;81.30;;;;;;5055221;28;20032;-67
2020/12/28 05:09:23;;;;;;;30.00;14.88;;;1.10;81.40;;;;;;5053858;28;20040;-67
2020/12/28 05:11:57;;;;;;;36.58;17.23;;;1.10;81.20;;;;;;5054762;28;20029;-72
2020/12/28 05:14:23;;;;;;;30.75;14.00;;;1.10;81.10;;;;;;5053484;28;20116;-67
2020/12/28 05:16:57;;;;;;;34.85;15.15;;;1.10;81.10;;;;;;5053502;28;20032;-67
2020/12/28 05:19:22;;;;;;;50.80;22.33;;;1.00;81.10;;;;;;5053529;28;20056;-68
2020/12/28 05:21:48;;;;;;;35.83;17.77;;;1.00;81.10;;;;;;5054905;28;20053;-68
2020/12/28 05:24:15;;;;;;;65.10;26.77;;;1.00;81.30;;;;;;5053382;28;20025;-68
2020/12/28 05:26:42;;;;;;;63.15;26.60;;;1.00;81.30;;;;;;5053318;28;20501;-68
2020/12/28 05:29:16;;;;;;;61.80;27.15;;;0.90;81.30;;;;;;5054561;28;20127;-68
2020/12/28 05:31:44;;;;;;;49.28;21.85;;;0.90;81.30;;;;;;5053349;28;20052;-68
2020/12/28 05:34:15;;;;;;;63.53;27.67;;;0.90;81.30;;;;;;5053192;28;20420;-67
2020/12/28 05:36:42;;;;;;;55.00;24.15;;;0.90;81.60;;;;;;5053192;28;20021;-67
2020/12/28 05:39:13;;;;;;;48.53;22.45;;;0.90;81.80;;;;;;5054514;28;20029;-66
2020/12/28 05:41:38;;;;;;;50.60;24.27;;;0.80;81.90;;;;;;5054128;28;20056;-68
2020/12/28 05:44:11;;;;;;;51.88;25.00;;;0.80;81.90;;;;;;5054121;28;20098;-68
2020/12/28 05:46:37;;;;;;;74.35;29.38;;;0.80;82.20;;;;;;5054165;28;20028;-67
2020/12/28 05:49:07;;;;;;;110.25;41.47;;;0.80;82.10;;;;;;5054078;28;20494;-67
2020/12/28 05:51:35;;;;;;;87.15;36.10;;;0.80;82.10;;;;;;5054295;28;20033;-67
2020/12/28 05:54:14;;;;;;;69.28;30.23;;;0.80;82.10;;;;;;5049529;28;20018;-79
2020/12/28 05:56:43;;;;;;;53.17;24.63;;;0.80;82.80;;;;;;5039018;28;20535;-69
2020/12/28 05:59:10;;;;;;;44.67;21.60;;;0.80;82.30;;;;;;5041058;28;20021;-69
2020/12/28 06:01:42;;;;;;;50.20;23.45;;;0.80;82.10;;;;;;5045993;28;20127;-68
2020/12/28 06:04:13;;;;;;;44.70;20.00;;;0.80;82.10;;;;;;5044363;28;20048;-69
2020/12/28 06:06:40;;;;;;;60.55;27.27;;;0.80;82.30;;;;;;5053598;28;20055;-69
2020/12/28 06:09:05;;;;;;;58.42;24.88;;;0.80;82.20;;;;;;5042638;28;20025;-70
2020/12/28 06:11:31;;;;;;;46.90;21.33;;;0.80;82.20;;;;;;5051105;28;20021;-68
2020/12/28 06:13:57;;;;;;;45.63;21.83;;;0.80;82.10;;;;;;5047197;28;20025;-68
2020/12/28 06:16:23;;;;;;;47.75;20.38;;;0.80;82.20;;;;;;5039417;28;20071;-67
2020/12/28 06:18:56;;;;;;;48.15;23.70;;;0.80;82.70;;;;;;5043192;28;20053;-68
2020/12/28 06:21:22;;;;;;;48.78;21.40;;;0.80;82.10;;;;;;5047156;28;20039;-67
2020/12/28 06:23:50;;;;;;;68.70;27.52;;;0.80;82.10;;;;;;5045383;28;20040;-68
2020/12/28 06:26:20;;;;;;;63.13;26.02;;;0.80;82.10;;;;;;5037694;28;20172;-85
2020/12/28 06:28:48;;;;;;;32.90;16.48;;;0.80;82.20;;;;;;5034457;28;20069;-73
2020/12/28 06:31:14;;;;;;;33.35;16.15;;;0.80;82.00;;;;;;5038781;28;20036;-69
2020/12/28 06:33:50;;;;;;;37.15;18.35;;;0.90;81.90;;;;;;5046905;28;20406;-65
2020/12/28 06:36:16;;;;;;;34.90;17.60;;;0.80;81.90;;;;;;5050411;28;20028;-78
2020/12/28 06:38:42;;;;;;;42.35;18.23;;;0.90;82.00;;;;;;5039335;28;20461;-67
2020/12/28 06:41:08;;;;;;;39.85;17.50;;;0.90;82.00;;;;;;5043508;28;20021;-69
2020/12/28 06:43:39;;;;;;;35.00;18.45;;;0.90;81.80;;;;;;5049586;28;20040;-68
2020/12/28 06:46:05;;;;;;;30.35;16.13;;;0.80;81.60;;;;;;5044559;28;20025;-68
2020/12/28 06:48:31;;;;;;;31.27;15.30;;;0.80;81.80;;;;;;5035172;28;20040;-70
2020/12/28 06:51:06;;;;;;;30.23;15.48;;;0.80;81.90;;;;;;5034819;28;20071;-69
2020/12/28 06:53:31;;;;;;;32.00;15.37;;;0.80;81.90;;;;;;5041490;28;20032;-66
2020/12/28 06:56:11;;;;;;;28.65;14.52;;;0.80;81.80;;;;;;5039299;28;20033;-65
2020/12/28 06:58:37;;;;;;;37.47;15.80;;;0.80;81.90;;;;;;5037335;28;20072;-65
2020/12/28 07:01:06;;;;;;;29.65;14.30;;;0.80;81.90;;;;;;5034350;28;20024;-67
2020/12/28 07:03:33;;;;;;;44.13;19.08;;;0.80;82.10;;;;;;5050753;28;20153;-65
2020/12/28 07:06:00;;;;;;;46.35;23.08;;;0.80;82.10;;;;;;5051474;28;20048;-66
2020/12/28 07:08:27;;;;;;;41.25;20.10;;;0.80;82.10;;;;;;5052951;28;20029;-65
2020/12/28 07:11:06;;;;;;;30.17;14.63;;;0.80;82.00;;;;;;5052636;28;20033;-66
2020/12/28 07:13:32;;;;;;;52.05;22.73;;;0.90;82.00;;;;;;5052866;28;20151;-67
2020/12/28 07:16:05;;;;;;;44.45;21.45;;;0.80;82.10;;;;;;5053699;28;20043;-66
2020/12/28 07:18:31;;;;;;;40.13;21.80;;;0.90;82.40;;;;;;5057802;28;20383;-65
2020/12/28 07:20:58;;;;;;;41.28;19.73;;;0.90;82.50;;;;;;5059803;28;20025;-66
2020/12/28 07:23:24;;;;;;;49.50;24.50;;;0.90;82.30;;;;;;5044300;28;20476;-66
2020/12/28 07:26:06;;;;;;;39.33;20.65;;;1.00;82.40;;;;;;5059338;28;20420;-65
2020/12/28 07:28:34;;;;;;;49.63;23.33;;;1.00;82.20;;;;;;5046008;28;20047;-67
2020/12/28 07:31:02;;;;;;;49.97;23.70;;;1.00;82.10;;;;;;5058214;28;20060;-67
2020/12/28 07:33:28;;;;;;;55.17;29.13;;;1.00;82.10;;;;;;5059271;28;20091;-66
2020/12/28 07:36:09;;;;;;;54.20;24.85;;;1.00;82.10;;;;;;5058225;28;20474;-66
2020/12/28 07:38:35;;;;;;;80.35;33.13;;;1.00;82.30;;;;;;5058119;28;20079;-66
2020/12/28 07:41:02;;;;;;;122.63;49.85;;;1.00;82.20;;;;;;5048366;28;20147;-67
2020/12/28 07:43:28;;;;;;;60.95;27.30;;;1.00;82.30;;;;;;5056287;28;20111;-67
2020/12/28 07:46:26;;;;;;;41.17;20.42;;;1.10;82.20;;;;;;5059254;28;20112;-67
2020/12/28 07:48:53;;;;;;;47.97;23.25;;;1.10;82.10;;;;;;5043114;28;20040;-66
2020/12/28 07:51:23;;;;;;;54.28;28.15;;;1.10;82.10;;;;;;5058210;28;20382;-66
2020/12/28 07:53:57;;;;;;;40.78;19.20;;;1.10;82.20;;;;;;5058006;28;20036;-69
2020/12/28 07:56:28;;;;;;;57.30;27.20;;;1.10;82.20;;;;;;5058203;28;20467;-65
2020/12/28 07:59:29;;;;;;;46.33;23.23;;;1.10;82.10;;;;;;5059150;28;20075;-66
2020/12/28 08:02:01;;;;;;;47.17;18.38;;;1.10;82.30;;;;;;5059223;28;20418;-66
2020/12/28 08:04:27;;;;;;;60.42;26.35;;;1.10;82.40;;;;;;5057958;28;20032;-66
2020/12/28 08:06:58;;;;;;;49.63;23.35;;;1.10;82.20;;;;;;5059247;28;20108;-66
2020/12/28 08:09:24;;;;;;;40.38;19.88;;;1.20;82.50;;;;;;5059166;28;20033;-66
2020/12/28 08:11:58;;;;;;;45.65;22.27;;;1.20;82.30;;;;;;5057555;28;20443;-67
2020/12/28 08:14:24;;;;;;;39.28;20.17;;;1.20;82.40;;;;;;5059502;28;20082;-66
2020/12/28 08:16:50;;;;;;;44.17;21.33;;;1.20;82.40;;;;;;5059101;28;20378;-66
2020/12/28 08:19:26;;;;;;;41.17;19.80;;;1.20;82.30;;;;;;5059281;28;20037;-70
2020/12/28 08:21:52;;;;;;;40.40;19.48;;;1.30;82.30;;;;;;5058844;28;20025;-66
2020/12/28 08:24:20;;;;;;;39.15;18.10;;;1.30;82.30;;;;;;5059415;28;20036;-66
2020/12/28 08:26:47;;;;;;;37.05;18.23;;;1.40;82.40;;;;;;5057441;28;20033;-66
2020/12/28 08:29:13;;;;;;;59.05;24.70;;;1.40;81.80;;;;;;5055291;28;20048;-66
2020/12/28 08:31:39;;;;;;;35.25;18.05;;;1.40;81.80;;;;;;5056035;28;20032;-66
2020/12/28 08:34:07;;;;;;;44.33;21.27;;;1.50;82.00;;;;;;5054468;28;20036;-66
2020/12/28 08:36:36;;;;;;;55.10;24.98;;;1.50;82.00;;;;;;5055670;28;20168;-66
2020/12/28 08:39:11;;;;;;;47.47;23.83;;;1.60;82.00;;;;;;5055592;28;20024;-65
2020/12/28 08:41:37;;;;;;;48.97;21.88;;;1.60;82.00;;;;;;5055650;28;20416;-66
2020/12/28 08:44:03;;;;;;;44.63;21.42;;;1.70;81.80;;;;;;5055102;28;20075;-66
2020/12/28 08:46:28;;;;;;;64.72;28.33;;;1.70;82.10;;;;;;5055149;28;20025;-73
2020/12/28 08:48:54;;;;;;;56.00;22.92;;;1.80;81.80;;;;;;5055760;28;20143;-66
2020/12/28 08:51:20;;;;;;;66.07;29.67;;;1.80;81.30;;;;;;5055385;28;20032;-69
2020/12/28 08:53:49;;;;;;;88.38;32.38;;;1.80;81.40;;;;;;5055384;28;20056;-66
2020/12/28 08:56:17;;;;;;;95.15;32.35;;;1.80;81.10;;;;;;5054092;28;20025;-66
2020/12/28 08:58:43;;;;;;;81.95;29.88;;;1.80;81.00;;;;;;5053855;28;20035;-65
2020/12/28 09:01:09;;;;;;;106.38;43.60;;;1.80;81.10;;;;;;5055166;28;20040;-66
2020/12/28 09:03:36;;;;;;;98.70;36.85;;;1.80;80.80;;;;;;5055184;28;20467;-65
2020/12/28 09:06:03;;;;;;;101.03;38.80;;;1.80;81.50;;;;;;5055091;28;20044;-67
2020/12/28 09:08:29;;;;;;;67.93;27.05;;;1.80;81.60;;;;;;5053956;28;20025;-65
2020/12/28 09:10:55;;;;;;;75.00;30.52;;;1.80;81.00;;;;;;5053908;28;20044;-66
2020/12/28 09:13:21;;;;;;;49.75;21.20;;;1.80;80.90;;;;;;5053838;28;20471;-66
2020/12/28 09:15:47;;;;;;;75.07;27.75;;;1.80;80.60;;;;;;5054978;28;20070;-66
2020/12/28 09:18:12;;;;;;;81.38;30.52;;;1.80;80.40;;;;;;5053391;28;20048;-66
2020/12/28 09:20:38;;;;;;;51.92;21.70;;;1.70;80.20;;;;;;5054882;28;20025;-66
2020/12/28 09:23:04;;;;;;;53.63;25.65;;;1.70;80.60;;;;;;5054484;28;20032;-66
2020/12/28 09:25:30;;;;;;;59.13;26.67;;;1.70;80.60;;;;;;5055011;28;20033;-66
2020/12/28 09:27:55;;;;;;;57.28;24.65;;;1.70;80.60;;;;;;5054292;28;20100;-66
2020/12/28 09:30:22;;;;;;;43.33;19.85;;;1.70;80.50;;;;;;5055116;28;20064;-67
2020/12/28 09:32:48;;;;;;;42.53;21.58;;;1.70;80.30;;;;;;5053283;28;20475;-68
2020/12/28 09:35:14;;;;;;;36.08;17.02;;;1.60;80.50;;;;;;5054318;28;20119;-66
2020/12/28 09:37:40;;;;;;;48.13;20.05;;;1.60;80.50;;;;;;5053614;28;20353;-66
2020/12/28 09:40:06;;;;;;;43.10;23.05;;;1.60;80.70;;;;;;5054170;28;20020;-66
2020/12/28 09:42:32;;;;;;;53.35;25.40;;;1.60;81.30;;;;;;5054303;28;20040;-66
2020/12/28 09:44:57;;;;;;;49.50;23.42;;;1.60;80.60;;;;;;5054600;28;20033;-66
2020/12/28 09:47:23;;;;;;;51.47;24.05;;;1.60;80.90;;;;;;5053347;28;20032;-66
2020/12/28 09:49:49;;;;;;;47.67;20.88;;;1.60;80.80;;;;;;5054300;28;20371;-67
2020/12/28 09:52:14;;;;;;;58.88;28.55;;;1.60;80.90;;;;;;5054012;28;20029;-66
2020/12/28 09:54:40;;;;;;;50.33;24.92;;;1.60;80.70;;;;;;5054520;28;20023;-67
2020/12/28 09:57:06;;;;;;;73.63;31.75;;;1.60;80.90;;;;;;5054300;28;20048;-65
2020/12/28 09:59:37;;;;;;;62.80;29.70;;;1.60;81.10;;;;;;5052835;28;20382;-66
2020/12/28 10:02:03;;;;;;;69.53;32.60;;;1.60;81.20;;;;;;5041830;28;20091;-65
2020/12/28 10:04:29;;;;;;;67.53;31.50;;;1.60;81.10;;;;;;5048250;28;20105;-66
2020/12/28 10:06:55;;;;;;;53.72;24.30;;;1.60;81.20;;;;;;5049625;28;20447;-65
2020/12/28 10:09:21;;;;;;;45.35;23.50;;;1.60;81.00;;;;;;5050416;28;20029;-66
2020/12/28 10:11:46;;;;;;;39.53;20.63;;;1.50;80.90;;;;;;5054309;28;20029;-65
2020/12/28 10:14:13;;;;;;;52.50;22.10;;;1.50;81.30;;;;;;5053600;28;20459;-66
2020/12/28 10:16:39;;;;;;;39.97;19.38;;;1.50;81.50;;;;;;5053831;28;20060;-67
2020/12/28 10:19:05;;;;;;;51.10;25.95;;;1.50;81.50;;;;;;5053645;28;20029;-66
2020/12/28 10:21:30;;;;;;;40.85;19.20;;;1.50;81.60;;;;;;5054141;28;20029;-66
2020/12/28 10:23:56;;;;;;;46.42;21.00;;;1.50;81.60;;;;;;5053384;28;20417;-66
2020/12/28 10:26:24;;;;;;;38.63;19.08;;;1.50;81.70;;;;;;5052297;28;20029;-66
2020/12/28 10:28:51;;;;;;;56.38;25.23;;;1.60;81.80;;;;;;5052258;28;20045;-66
2020/12/28 10:31:18;;;;;;;77.07;29.52;;;1.60;81.90;;;;;;5053377;28;20033;-65
2020/12/28 10:33:45;;;;;;;61.67;27.73;;;1.60;82.60;;;;;;5053436;28;20039;-66
2020/12/28 10:36:17;;;;;;;59.13;27.33;;;1.60;82.00;;;;;;5051999;28;20067;-66
2020/12/28 10:38:45;;;;;;;37.40;17.48;;;1.60;82.20;;;;;;5040201;28;20030;-66
2020/12/28 10:41:11;;;;;;;40.90;20.25;;;1.70;82.20;;;;;;5053434;28;20029;-66
2020/12/28 10:43:37;;;;;;;40.03;19.70;;;1.70;82.00;;;;;;5052050;28;20043;-66
2020/12/28 10:46:09;;;;;;;42.53;19.70;;;1.70;82.30;;;;;;5051765;28;20028;-66
2020/12/28 10:48:35;;;;;;;42.58;21.13;;;1.70;82.10;;;;;;5053345;28;20025;-66
2020/12/28 10:51:01;;;;;;;47.83;19.02;;;1.80;82.30;;;;;;5052789;28;20025;-66
2020/12/28 10:53:27;;;;;;;40.95;19.92;;;1.80;82.20;;;;;;5053025;28;20501;-67
2020/12/28 10:55:53;;;;;;;51.90;24.67;;;1.80;82.20;;;;;;5053181;28;20018;-67
2020/12/28 10:58:19;;;;;;;54.90;26.02;;;1.80;82.20;;;;;;5051966;28;20079;-67
2020/12/28 11:00:44;;;;;;;68.57;31.67;;;1.80;82.40;;;;;;5052710;28;20475;-66
2020/12/28 11:03:10;;;;;;;63.17;30.50;;;1.80;82.30;;;;;;5053320;28;20036;-65
2020/12/28 11:05:36;;;;;;;63.15;27.20;;;1.80;82.50;;;;;;5052220;28;20029;-65
2020/12/28 11:08:02;;;;;;;53.13;25.38;;;1.80;82.50;;;;;;5052928;28;20021;-66
2020/12/28 11:10:27;;;;;;;46.22;20.98;;;1.90;82.40;;;;;;5053030;28;20037;-66
2020/12/28 11:12:53;;;;;;;35.28;17.50;;;1.80;82.10;;;;;;5052783;28;20102;-65
2020/12/28 11:15:19;;;;;;;43.42;20.98;;;1.80;82.20;;;;;;5052781;28;20167;-66
2020/12/28 11:17:45;;;;;;;45.50;23.30;;;1.80;82.30;;;;;;5051717;28;20032;-66
2020/12/28 11:20:10;;;;;;;35.47;17.00;;;1.80;82.20;;;;;;5052494;28;20459;-67
2020/12/28 11:22:36;;;;;;;32.13;16.15;;;1.80;82.30;;;;;;5051368;28;20061;-67
2020/12/28 11:25:03;;;;;;;44.92;19.98;;;1.80;82.30;;;;;;5052806;28;20025;-66
2020/12/28 11:27:30;;;;;;;59.10;27.27;;;1.80;82.40;;;;;;5052638;28;20040;-66
2020/12/28 11:29:57;;;;;;;54.22;26.05;;;1.80;83.00;;;;;;5050855;28;20505;-66
2020/12/28 11:32:23;;;;;;;28.38;14.23;;;1.80;82.50;;;;;;5052759;28;20032;-66
2020/12/28 11:34:49;;;;;;;58.35;24.92;;;1.80;82.70;;;;;;5051346;28;20029;-66
2020/12/28 11:37:14;;;;;;;41.10;23.05;;;1.90;82.80;;;;;;5052785;28;20025;-66
2020/12/28 11:39:40;;;;;;;28.95;13.85;;;1.90;82.80;;;;;;5051570;28;20029;-72
2020/12/28 11:42:06;;;;;;;33.63;15.75;;;1.90;82.60;;;;;;5052511;28;20119;-65
2020/12/28 11:44:32;;;;;;;35.17;15.75;;;1.90;82.40;;;;;;5052704;28;20029;-66
2020/12/28 11:46:57;;;;;;;28.80;13.07;;;1.90;82.50;;;;;;5052682;28;20021;-66
2020/12/28 11:49:23;;;;;;;33.67;15.57;;;1.80;82.60;;;;;;5053055;28;20061;-67
2020/12/28 11:51:53;;;;;;;29.98;12.73;;;1.80;82.50;;;;;;5052821;28;20029;-66
2020/12/28 11:54:19;;;;;;;42.70;18.48;;;1.80;82.70;;;;;;5052825;28;20379;-66
2020/12/28 11:56:45;;;;;;;38.75;17.92;;;1.80;82.90;;;;;;5051059;28;20036;-66
2020/12/28 11:59:11;;;;;;;38.28;15.73;;;1.80;82.90;;;;;;5048329;28;20419;-66
2020/12/28 12:01:36;;;;;;;47.97;21.08;;;1.80;82.90;;;;;;5041759;28;20057;-66
2020/12/28 12:04:02;;;;;;;43.50;22.23;;;1.70;83.40;;;;;;5054140;28;20048;-66
2020/12/28 12:06:28;;;;;;;47.63;22.00;;;1.80;83.10;;;;;;5054955;28;20095;-66
2020/12/28 12:11:49;;;;;;;37.40;17.30;;;1.80;83.20;;;;;;5055853;28;20044;-66
2020/12/28 12:14:17;;;;;;;35.20;17.00;;;1.80;83.10;;;;;;5054863;28;20025;-67
2020/12/28 12:16:57;;;;;;;46.25;22.23;;;1.80;83.10;;;;;;5054601;28;20033;-66
2020/12/28 12:19:37;;;;;;;35.95;16.75;;;1.80;83.20;;;;;;5055075;28;20029;-67
2020/12/28 12:22:06;;;;;;;42.25;19.50;;;1.80;83.10;;;;;;5054476;28;20021;-67
2020/12/28 12:24:32;;;;;;;34.60;14.15;;;1.80;83.10;;;;;;5055976;28;20020;-67
2020/12/28 12:26:58;;;;;;;38.80;17.08;;;1.80;82.90;;;;;;5054864;28;20045;-66
2020/12/28 12:29:27;;;;;;;30.45;13.35;;;1.80;83.00;;;;;;5056179;28;20060;-67
2020/12/28 12:31:53;;;;;;;32.30;15.20;;;1.80;82.90;;;;;;5055685;28;20024;-67
2020/12/28 12:34:19;;;;;;;39.42;17.70;;;1.80;83.00;;;;;;5054508;28;20021;-65
2020/12/28 12:36:45;;;;;;;34.63;17.00;;;1.70;83.00;;;;;;5055842;28;20029;-66
2020/12/28 12:39:11;;;;;;;31.85;15.88;;;1.80;83.10;;;;;;5054514;28;20031;-67